Time;durP1;ratioP1;P1;durP2;ratioP2;P2;SDS_P1;SDS_P2;PMS_P1;PMS_P2;Temp;Humidity;BMP_temperature;BMP_pressure;BME280_temperature;BME280_humidity;BME280_pressure;Samples;Min_cycle;Max_cycle;Signal;HPM_P1;HPM_P2
2022/11/02 00:00:30;;;;;;;;;1.50;0.00;;;;;17.17;60.77;-19667.84;5017026;28;45288;-69
2022/11/02 00:02:56;;;;;;;;;0.00;0.00;;;;;17.08;61.19;-19665.69;5017604;28;45455;-69
2022/11/02 00:05:24;;;;;;;;;1.33;0.33;;;;;16.86;61.25;-19659.81;5000593;28;45943;-69
2022/11/02 00:07:51;;;;;;;;;0.00;0.00;;;;;17.07;62.47;-19665.44;5013971;28;45860;-68
2022/11/02 00:10:18;;;;;;;;;2.00;0.25;;;;;16.77;62.54;-19657.53;5008044;28;45498;-69
2022/11/02 00:12:44;;;;;;;;;0.67;0.00;;;;;16.83;62.35;-19659.00;5007152;28;45503;-69
2022/11/02 00:15:16;;;;;;;;;0.00;0.00;;;;;17.05;62.85;-19664.78;5016730;28;45629;-69
2022/11/02 00:17:46;;;;;;;;;1.00;0.00;;;;;17.01;63.25;-19663.81;5023897;28;45860;-69
2022/11/02 00:20:15;;;;;;;;;1.25;0.00;;;;;16.97;63.18;-19662.75;5027808;28;45411;-69
2022/11/02 00:22:42;;;;;;;;;1.00;1.00;;;;;16.92;63.39;-19661.41;4997167;27;45345;-69
2022/11/02 00:25:12;;;;;;;;;0.25;0.00;;;;;16.93;63.78;-19661.69;4996314;27;46116;-69
2022/11/02 00:27:39;;;;;;;;;1.67;0.33;;;;;16.95;63.71;-19662.09;4974928;27;45527;-69
2022/11/02 00:30:05;;;;;;;;;2.00;1.00;;;;;16.94;63.45;-19661.81;4995791;27;45485;-69
2022/11/02 00:32:30;;;;;;;;;2.67;1.00;;;;;16.91;63.65;-19661.03;4995968;27;45429;-70
2022/11/02 00:34:56;;;;;;;;;0.25;0.00;;;;;16.87;63.50;-19660.09;4994266;27;45460;-69
2022/11/02 00:37:21;;;;;;;;;1.00;1.00;;;;;16.88;63.27;-19660.47;4993980;27;45453;-69
2022/11/02 00:39:46;;;;;;;;;0.50;0.00;;;;;16.90;63.61;-19660.88;5001067;27;45404;-69
2022/11/02 00:42:12;;;;;;;;;0.00;0.00;;;;;16.88;63.46;-19660.34;4993724;27;45364;-69
2022/11/02 00:44:38;;;;;;;;;0.25;0.25;;;;;16.85;63.43;-19659.53;4978105;28;47081;-69
2022/11/02 00:47:03;;;;;;;;;2.00;0.00;;;;;16.85;63.39;-19659.69;4977861;27;45490;-69
2022/11/02 00:49:29;;;;;;;;;0.00;0.00;;;;;16.47;63.05;-19649.63;4978533;28;45354;-69
2022/11/02 00:51:55;;;;;;;;;1.00;0.00;;;;;16.88;63.10;-19660.47;4992675;27;45370;-68
2022/11/02 00:54:20;;;;;;;;;0.00;0.00;;;;;16.84;62.71;-19659.28;4990188;27;46966;-69
2022/11/02 00:56:46;;;;;;;;;0.00;0.00;;;;;16.85;62.80;-19659.53;4974481;27;45704;-69
2022/11/02 00:59:11;;;;;;;;;0.00;0.00;;;;;16.64;62.30;-19654.03;4994165;27;45526;-69
2022/11/02 01:01:36;;;;;;;;;0.00;0.00;;;;;16.80;62.38;-19658.34;5024757;27;45470;-69
2022/11/02 01:04:02;;;;;;;;;1.33;0.33;;;;;16.81;62.33;-19658.47;4995761;27;45225;-69
2022/11/02 01:06:28;;;;;;;;;2.00;0.00;;;;;16.76;62.08;-19657.25;4995438;27;45346;-69
2022/11/02 01:08:54;;;;;;;;;3.00;1.00;;;;;16.73;61.90;-19656.47;4978610;28;46585;-69
2022/11/02 01:11:21;;;;;;;;;1.25;1.00;;;;;16.69;61.67;-19655.38;4999347;27;45466;-69
2022/11/02 01:13:49;;;;;;;;;0.00;0.00;;;;;16.22;61.89;-19643.19;4995675;27;46124;-69
2022/11/02 01:16:15;;;;;;;;;1.00;0.00;;;;;16.58;61.49;-19652.44;4995491;27;45384;-69
2022/11/02 01:18:40;;;;;;;;;0.67;0.00;;;;;16.63;61.75;-19653.78;4989922;28;45417;-69
2022/11/02 01:21:06;;;;;;;;;0.25;0.00;;;;;16.61;62.26;-19653.38;4995639;27;45548;-69
2022/11/02 01:23:34;;;;;;;;;0.67;0.00;;;;;16.59;62.26;-19652.72;4995666;27;45504;-69
2022/11/02 01:26:08;;;;;;;;;2.00;1.00;;;;;16.51;62.17;-19650.69;4996264;27;45500;-69
2022/11/02 01:28:34;;;;;;;;;1.67;0.00;;;;;16.38;62.08;-19647.22;4995690;27;45352;-69
2022/11/02 01:30:59;;;;;;;;;0.67;0.00;;;;;16.54;62.29;-19651.38;4977697;27;45483;-69
2022/11/02 01:33:26;;;;;;;;;2.00;0.33;;;;;16.52;62.27;-19650.97;4995542;27;46175;-69
2022/11/02 01:35:52;;;;;;;;;0.33;0.33;;;;;16.34;62.29;-19646.28;4977597;27;45799;-69
2022/11/02 01:38:18;;;;;;;;;0.25;0.25;;;;;16.55;62.08;-19651.78;4995436;27;45433;-69
2022/11/02 01:40:44;;;;;;;;;2.33;0.00;;;;;16.46;62.28;-19649.38;4976466;27;45469;-69
2022/11/02 01:43:29;;;;;;;;;2.33;1.00;;;;;16.44;62.52;-19648.81;4998459;27;46315;-69
2022/11/02 01:45:58;;;;;;;;;2.33;1.00;;;;;16.39;62.38;-19647.63;4995086;27;46201;-70
2022/11/02 01:48:32;;;;;;;;;0.00;0.00;;;;;16.35;62.60;-19646.53;4995332;27;45406;-69
2022/11/02 01:51:01;;;;;;;;;0.00;0.00;;;;;16.39;62.80;-19647.50;4995557;27;45521;-69
2022/11/02 01:53:28;;;;;;;;;0.25;0.00;;;;;16.37;62.68;-19646.94;4977388;27;46860;-69
2022/11/02 01:55:55;;;;;;;;;2.67;0.00;;;;;16.29;62.32;-19644.81;4995799;27;46408;-69
2022/11/02 01:58:20;;;;;;;;;0.00;0.00;;;;;16.32;62.84;-19645.59;4995068;27;45571;-69
2022/11/02 02:00:45;;;;;;;;;1.00;1.00;;;;;16.28;62.90;-19644.53;4999187;27;45322;-69
2022/11/02 02:03:16;;;;;;;;;0.00;0.00;;;;;16.28;63.14;-19644.53;4994655;27;46021;-69
2022/11/02 02:05:48;;;;;;;;;1.00;1.00;;;;;16.25;63.38;-19643.88;4993529;28;45904;-69
2022/11/02 02:08:17;;;;;;;;;2.00;0.67;;;;;16.12;63.39;-19640.50;4994860;27;45429;-77
2022/11/02 02:10:42;;;;;;;;;1.67;0.67;;;;;16.02;63.55;-19637.84;4992318;27;45355;-78
2022/11/02 02:13:08;;;;;;;;;1.00;1.00;;;;;16.28;63.29;-19644.66;4994503;27;45361;-78
2022/11/02 02:15:56;;;;;;;;;1.75;0.50;;;;;16.08;63.40;-19639.31;4995004;27;45441;-77
2022/11/02 02:18:30;;;;;;;;;0.00;0.00;;;;;16.15;63.10;-19641.31;4965048;28;45420;-78
2022/11/02 02:21:11;;;;;;;;;2.00;1.00;;;;;16.24;63.14;-19643.72;4995255;27;45260;-77
2022/11/02 02:23:58;;;;;;;;;1.00;1.00;;;;;16.20;63.44;-19642.66;4983238;27;46046;-78
2022/11/02 02:26:37;;;;;;;;;0.33;0.33;;;;;16.20;63.58;-19642.53;4994470;27;45493;-77
2022/11/02 02:29:15;;;;;;;;;0.25;0.00;;;;;16.02;63.37;-19637.84;4994690;27;45376;-78
2022/11/02 02:32:04;;;;;;;;;2.00;1.00;;;;;16.19;63.74;-19642.41;4995149;28;45421;-79
2022/11/02 02:34:37;;;;;;;;;0.75;0.00;;;;;16.14;63.84;-19640.91;4996767;27;47596;-77
2022/11/02 02:37:08;;;;;;;;;1.00;1.00;;;;;15.91;63.78;-19635.03;4994692;27;45519;-78
2022/11/02 02:39:48;;;;;;;;;1.33;0.00;;;;;16.08;63.90;-19639.31;4994509;27;45298;-78
2022/11/02 02:42:20;;;;;;;;;0.33;0.33;;;;;16.06;63.89;-19638.91;4993756;27;45353;-77
2022/11/02 02:45:11;;;;;;;;;1.00;1.00;;;;;16.02;63.85;-19637.84;4994392;27;46738;-77
2022/11/02 02:47:44;;;;;;;;;0.67;0.00;;;;;16.04;63.92;-19638.50;4994243;27;45366;-78
2022/11/02 02:50:18;;;;;;;;;0.67;0.67;;;;;16.04;64.34;-19638.38;4994612;27;46419;-77
2022/11/02 02:52:49;;;;;;;;;1.33;1.00;;;;;16.05;64.25;-19638.63;4980786;28;45828;-78
2022/11/02 02:55:21;;;;;;;;;0.00;0.00;;;;;15.98;64.25;-19636.75;4994048;27;46112;-78
2022/11/02 02:57:50;;;;;;;;;0.00;0.00;;;;;16.03;64.14;-19638.09;4994351;27;45297;-78
2022/11/02 03:00:17;;;;;;;;;2.00;0.33;;;;;15.79;63.83;-19631.81;4994030;27;45421;-78
2022/11/02 03:03:01;;;;;;;;;1.00;1.00;;;;;15.97;64.15;-19636.63;4994941;27;45478;-78
2022/11/02 03:05:32;;;;;;;;;0.33;0.00;;;;;15.95;64.25;-19635.97;4988545;27;45944;-78
2022/11/02 03:08:05;;;;;;;;;1.00;1.00;;;;;15.93;64.07;-19635.44;4988340;27;45559;-77
2022/11/02 03:10:41;;;;;;;;;0.00;0.00;;;;;15.89;64.15;-19634.47;4994429;28;45310;-69
2022/11/02 03:13:35;;;;;;;;;1.00;1.00;;;;;15.89;64.45;-19634.47;4994440;27;45417;-69
2022/11/02 03:16:18;;;;;;;;;1.00;1.00;;;;;15.69;64.33;-19629.25;4994621;27;46188;-69
2022/11/02 03:18:48;;;;;;;;;0.33;0.33;;;;;15.85;64.34;-19633.41;4982119;28;45459;-70
2022/11/02 03:21:40;;;;;;;;;0.75;0.75;;;;;15.82;64.43;-19632.75;4997266;27;45470;-69
2022/11/02 03:24:20;;;;;;;;;0.00;0.00;;;;;15.80;64.47;-19632.06;4997354;27;45346;-69
2022/11/02 03:26:55;;;;;;;;;1.00;1.00;;;;;15.80;64.72;-19632.22;5000367;27;46347;-69
2022/11/02 03:29:28;;;;;;;;;1.67;0.67;;;;;15.74;64.06;-19630.47;4994541;27;45484;-69
2022/11/02 03:32:09;;;;;;;;;1.00;0.33;;;;;15.78;64.45;-19631.66;4970819;28;45693;-69
2022/11/02 03:34:39;;;;;;;;;1.00;0.00;;;;;15.61;64.91;-19627.09;4988596;27;45423;-69
2022/11/02 03:37:11;;;;;;;;;2.00;0.00;;;;;15.74;64.83;-19630.59;4992313;28;48110;-69
2022/11/02 03:39:47;;;;;;;;;1.00;1.00;;;;;15.61;64.76;-19627.09;4994083;27;45432;-69
2022/11/02 03:42:18;;;;;;;;;1.00;0.00;;;;;15.38;64.73;-19621.22;5000003;27;45268;-69
2022/11/02 03:44:46;;;;;;;;;2.00;0.00;;;;;15.70;64.61;-19629.53;4997134;27;45438;-69
2022/11/02 03:47:16;;;;;;;;;1.67;0.33;;;;;15.61;64.81;-19627.25;4986196;28;45329;-69
2022/11/02 03:49:44;;;;;;;;;1.67;0.00;;;;;15.74;64.71;-19630.59;4996478;27;45391;-69
2022/11/02 03:52:17;;;;;;;;;0.00;0.00;;;;;15.62;64.97;-19627.38;4995546;27;45475;-69
2022/11/02 03:54:52;;;;;;;;;1.00;0.00;;;;;15.64;64.99;-19627.91;4980192;28;45558;-68
2022/11/02 03:57:31;;;;;;;;;1.00;0.00;;;;;15.50;64.84;-19624.16;4996445;27;45463;-69
2022/11/02 04:00:12;;;;;;;;;0.67;0.67;;;;;15.64;65.00;-19627.91;5000052;27;45458;-69
2022/11/02 04:02:40;;;;;;;;;4.33;0.33;;;;;15.72;64.81;-19629.94;4986005;27;45306;-70
2022/11/02 04:05:06;;;;;;;;;0.00;0.00;;;;;15.66;64.73;-19628.31;4996514;27;45330;-69
2022/11/02 04:08:19;;;;;;;;;3.67;1.00;;;;;15.61;65.14;-19627.25;4975270;28;47021;-69
2022/11/02 04:10:19;;;;;;;;;0.00;0.00;;;;;15.56;64.78;-19625.75;4996484;27;45385;-77
2022/11/02 04:15:29;;;;;;;;;1.67;0.67;;;;;15.56;65.00;-19625.91;4996593;27;45370;-77
2022/11/02 04:20:38;;;;;;;;;1.33;1.00;;;;;14.96;64.82;-19610.06;4990461;27;45448;-78
2022/11/02 04:25:54;;;;;;;;;0.67;0.67;;;;;15.54;64.73;-19625.22;4996534;27;45573;-77
2022/11/02 04:28:20;;;;;;;;;1.00;1.00;;;;;15.44;64.67;-19622.53;4996132;27;46436;-77
2022/11/02 04:30:46;;;;;;;;;2.33;0.33;;;;;15.58;64.59;-19626.31;4981582;27;45818;-77
2022/11/02 04:35:58;;;;;;;;;2.33;0.00;;;;;15.57;64.23;-19626.16;4983785;27;45381;-77
2022/11/02 04:38:41;;;;;;;;;1.33;0.33;;;;;15.55;64.54;-19625.63;4994441;27;47599;-77
2022/11/02 04:43:54;;;;;;;;;2.33;0.67;;;;;15.44;64.11;-19622.69;4995896;27;45472;-77
2022/11/02 04:46:21;;;;;;;;;1.33;1.00;;;;;15.51;64.07;-19624.56;4996371;27;45418;-77
2022/11/02 04:48:46;;;;;;;;;1.33;0.00;;;;;15.52;64.24;-19624.81;4983024;27;46262;-77
2022/11/02 04:51:12;;;;;;;;;2.00;1.33;;;;;15.54;64.43;-19625.22;4999346;27;45405;-77
2022/11/02 04:53:38;;;;;;;;;1.00;1.00;;;;;15.52;64.16;-19624.81;4978253;28;45370;-77
2022/11/02 04:56:04;;;;;;;;;1.00;1.00;;;;;15.54;64.40;-19625.34;4978435;27;45367;-77
2022/11/02 04:58:30;;;;;;;;;5.00;1.00;;;;;15.56;64.12;-19625.91;4990278;27;45414;-77
2022/11/02 05:00:55;;;;;;;;;1.67;1.00;;;;;15.54;64.24;-19625.34;4995812;27;45358;-77
2022/11/02 05:03:20;;;;;;;;;1.00;1.00;;;;;15.55;63.94;-19625.50;5007846;27;45339;-77
2022/11/02 05:05:46;;;;;;;;;0.00;0.00;;;;;15.55;63.92;-19625.63;4996075;27;45560;-77
2022/11/02 05:08:11;;;;;;;;;3.67;0.67;;;;;15.32;64.26;-19619.59;4999029;27;46072;-78
2022/11/02 05:10:37;;;;;;;;;1.67;1.00;;;;;15.50;64.23;-19624.16;4995657;27;45316;-78
2022/11/02 05:13:03;;;;;;;;;2.00;0.00;;;;;15.53;64.22;-19624.97;4995703;27;45453;-78
2022/11/02 05:15:28;;;;;;;;;3.33;1.00;;;;;15.30;64.34;-19618.94;4981668;27;45383;-77
2022/11/02 05:17:54;;;;;;;;;1.00;0.33;;;;;15.44;64.53;-19622.53;4977799;28;47258;-77
2022/11/02 05:20:19;;;;;;;;;1.00;1.00;;;;;15.49;64.46;-19623.88;4996779;27;45485;-78
2022/11/02 05:22:44;;;;;;;;;0.67;0.67;;;;;15.47;64.69;-19623.47;5012999;27;45549;-77
2022/11/02 05:25:11;;;;;;;;;0.00;0.00;;;;;15.44;64.29;-19622.69;5005305;27;45441;-77
2022/11/02 05:27:37;;;;;;;;;3.00;1.00;;;;;15.44;64.51;-19622.69;5000313;27;45540;-77
2022/11/02 05:30:04;;;;;;;;;2.33;0.33;;;;;15.45;64.30;-19622.81;4991763;27;45414;-77
2022/11/02 05:32:29;;;;;;;;;1.00;1.00;;;;;15.45;64.37;-19622.94;4987171;27;45400;-77
2022/11/02 05:34:54;;;;;;;;;1.33;1.33;;;;;15.44;64.23;-19622.69;4995350;27;45522;-77
2022/11/02 05:37:20;;;;;;;;;1.33;1.33;;;;;15.35;63.66;-19620.41;5006242;27;46131;-77
2022/11/02 05:39:46;;;;;;;;;0.00;0.00;;;;;15.45;64.08;-19622.81;4999072;27;45852;-77
2022/11/02 05:42:12;;;;;;;;;0.33;0.33;;;;;15.47;64.04;-19623.47;4997124;27;45296;-77
2022/11/02 05:44:37;;;;;;;;;2.00;1.00;;;;;15.49;63.82;-19624.03;5005191;27;45489;-78
2022/11/02 05:47:03;;;;;;;;;2.00;1.00;;;;;15.31;64.18;-19619.31;4992516;27;46116;-77
2022/11/02 05:49:29;;;;;;;;;2.33;0.33;;;;;15.47;64.01;-19623.34;5017362;27;45417;-77
2022/11/02 05:51:55;;;;;;;;;1.00;1.00;;;;;15.45;63.99;-19622.81;5000839;27;45444;-77
2022/11/02 05:54:20;;;;;;;;;2.00;0.67;;;;;15.25;64.23;-19617.59;5000695;27;45391;-77
2022/11/02 05:56:46;;;;;;;;;3.33;0.67;;;;;15.28;63.97;-19618.38;4962283;28;48069;-77
2022/11/02 05:59:11;;;;;;;;;1.00;0.00;;;;;15.41;64.42;-19621.88;5001664;27;45454;-78
2022/11/02 06:01:37;;;;;;;;;4.33;0.00;;;;;15.40;63.75;-19621.75;4988879;27;45355;-77
2022/11/02 06:04:03;;;;;;;;;5.67;0.67;;;;;15.37;64.07;-19620.81;4998649;27;45352;-77
2022/11/02 06:06:29;;;;;;;;;2.00;0.33;;;;;15.35;64.23;-19620.25;4982643;28;47866;-77
2022/11/02 06:08:54;;;;;;;;;0.33;0.00;;;;;15.33;64.27;-19619.88;4994141;27;45515;-77
2022/11/02 06:11:19;;;;;;;;;2.00;0.67;;;;;15.35;64.30;-19620.41;4993123;27;45476;-77
2022/11/02 06:13:49;;;;;;;;;4.67;2.00;;;;;15.15;63.84;-19615.03;4998399;27;45501;-77
2022/11/02 06:16:14;;;;;;;;;2.67;0.67;;;;;15.34;64.44;-19620.00;4996071;27;47208;-77
2022/11/02 06:18:40;;;;;;;;;0.67;0.67;;;;;15.31;64.21;-19619.19;4998274;27;45350;-77
2022/11/02 06:21:05;;;;;;;;;0.33;0.33;;;;;15.05;64.44;-19612.47;5000851;27;45936;-77
2022/11/02 06:23:31;;;;;;;;;1.67;0.00;;;;;15.26;64.77;-19617.97;5008670;27;46091;-77
2022/11/02 06:25:58;;;;;;;;;1.67;1.67;;;;;15.33;64.38;-19619.88;4956849;28;48263;-77
2022/11/02 06:28:24;;;;;;;;;2.33;0.67;;;;;15.34;64.65;-19620.13;4996466;28;45476;-77
2022/11/02 06:30:50;;;;;;;;;2.67;1.00;;;;;15.27;64.66;-19618.13;4999153;27;45570;-77
2022/11/02 06:33:17;;;;;;;;;4.67;1.67;;;;;15.33;65.02;-19619.88;4978790;28;45546;-77
2022/11/02 06:35:50;;;;;;;;;3.33;1.67;;;;;15.33;64.66;-19619.88;4975331;28;46352;-77
2022/11/02 06:38:17;;;;;;;;;3.33;0.67;;;;;15.33;65.33;-19619.72;4987427;27;45375;-77
2022/11/02 06:40:43;;;;;;;;;1.33;0.67;;;;;15.31;64.87;-19619.19;5005949;27;45303;-77
2022/11/02 06:43:08;;;;;;;;;3.33;1.67;;;;;15.29;65.15;-19618.78;4995153;27;45435;-77
2022/11/02 06:45:34;;;;;;;;;3.67;3.33;;;;;15.28;65.19;-19618.53;4992381;27;45484;-77
2022/11/02 06:47:59;;;;;;;;;0.67;0.67;;;;;14.75;65.13;-19604.56;4995970;27;45513;-77
2022/11/02 06:50:25;;;;;;;;;2.00;0.33;;;;;15.15;65.33;-19615.16;4997607;27;45528;-77
2022/11/02 06:52:50;;;;;;;;;5.33;2.67;;;;;14.84;65.15;-19606.84;4997791;27;45404;-77
2022/11/02 06:55:17;;;;;;;;;3.00;3.00;;;;;15.26;65.18;-19617.84;4999348;28;46700;-77
2022/11/02 06:57:43;;;;;;;;;2.67;1.67;;;;;15.14;64.80;-19614.91;4994055;28;45421;-77
2022/11/02 07:00:16;;;;;;;;;2.67;0.67;;;;;15.07;65.47;-19612.88;5000964;28;45385;-77
2022/11/02 07:02:44;;;;;;;;;5.00;1.33;;;;;15.30;65.38;-19619.06;4992340;27;45458;-77
2022/11/02 07:05:10;;;;;;;;;2.67;2.67;;;;;15.25;65.52;-19617.72;4992396;27;45387;-77
2022/11/02 07:07:35;;;;;;;;;4.33;2.00;;;;;15.30;65.43;-19618.94;4977395;27;45468;-77
2022/11/02 07:10:01;;;;;;;;;4.00;3.00;;;;;15.05;65.79;-19612.34;4976365;28;45649;-69
2022/11/02 07:12:26;;;;;;;;;1.00;1.00;;;;;15.15;65.82;-19615.03;4987905;27;45567;-69
2022/11/02 07:14:52;;;;;;;;;0.67;0.67;;;;;15.31;65.61;-19619.31;4993137;27;45649;-69
2022/11/02 07:17:17;;;;;;;;;0.67;0.67;;;;;15.33;65.39;-19619.72;4979086;27;45541;-69
2022/11/02 07:19:43;;;;;;;;;5.67;2.00;;;;;15.32;65.56;-19619.47;5064220;27;45406;-69
2022/11/02 07:22:08;;;;;;;;;2.33;1.67;;;;;15.35;65.70;-19620.41;4989745;28;46045;-69
2022/11/02 07:24:33;;;;;;;;;3.67;2.33;;;;;15.22;65.27;-19616.91;4998122;28;46262;-69
2022/11/02 07:26:59;;;;;;;;;2.67;1.33;;;;;15.40;65.26;-19621.75;4978014;27;45462;-69
2022/11/02 07:29:24;;;;;;;;;7.00;1.67;;;;;15.42;65.40;-19622.16;4997755;27;45439;-69
2022/11/02 07:31:49;;;;;;;;;4.00;2.00;;;;;15.39;65.40;-19621.34;4993987;27;45463;-69
2022/11/02 07:34:15;;;;;;;;;3.00;2.00;;;;;15.36;65.36;-19620.53;4978507;28;45326;-69
2022/11/02 07:36:40;;;;;;;;;3.33;1.33;;;;;15.43;65.33;-19622.41;4992179;27;45413;-69
2022/11/02 07:39:06;;;;;;;;;1.67;1.67;;;;;15.44;65.25;-19622.53;4980836;28;45453;-69
2022/11/02 07:41:32;;;;;;;;;1.33;1.00;;;;;15.45;65.17;-19622.94;4995485;27;45352;-69
2022/11/02 07:43:58;;;;;;;;;1.67;1.67;;;;;15.24;65.19;-19617.31;4994507;28;46718;-69
2022/11/02 07:46:23;;;;;;;;;3.00;2.00;;;;;15.45;65.36;-19622.81;4979401;27;45448;-69
2022/11/02 07:48:48;;;;;;;;;4.00;1.00;;;;;15.38;65.08;-19621.22;4983522;28;45469;-69
2022/11/02 07:51:13;;;;;;;;;2.00;1.00;;;;;15.49;64.82;-19623.88;4982130;28;45563;-69
2022/11/02 07:53:39;;;;;;;;;3.00;3.00;;;;;15.51;64.89;-19624.56;5002186;27;47295;-69
2022/11/02 07:56:05;;;;;;;;;3.33;1.00;;;;;15.48;65.05;-19623.75;4998569;27;45369;-69
2022/11/02 07:58:32;;;;;;;;;3.33;2.00;;;;;15.42;65.04;-19622.16;5003569;28;45456;-69
2022/11/02 08:00:59;;;;;;;;;1.00;1.00;;;;;15.56;64.87;-19625.75;4971841;28;45524;-69
2022/11/02 08:03:25;;;;;;;;;3.33;1.67;;;;;15.65;64.94;-19628.19;4993643;28;46228;-69
2022/11/02 08:05:51;;;;;;;;;2.33;1.33;;;;;15.61;64.89;-19627.25;5003469;27;45464;-69
2022/11/02 08:08:18;;;;;;;;;3.67;2.00;;;;;15.72;64.61;-19629.94;4994528;27;45463;-69
2022/11/02 08:10:45;;;;;;;;;2.00;0.33;;;;;15.59;64.86;-19626.72;4989970;27;45472;-69
2022/11/02 08:13:17;;;;;;;;;5.00;2.33;;;;;15.81;64.80;-19632.34;4976502;28;47606;-69
2022/11/02 08:15:43;;;;;;;;;4.00;2.00;;;;;15.86;64.32;-19633.56;4990486;27;45615;-69
2022/11/02 08:18:20;;;;;;;;;2.67;2.00;;;;;15.89;64.60;-19634.47;5002842;27;45362;-69
2022/11/02 08:20:46;;;;;;;;;3.00;3.00;;;;;15.95;64.32;-19636.09;4995842;27;45579;-69
2022/11/02 08:23:13;;;;;;;;;1.00;1.00;;;;;15.91;63.82;-19635.03;4980914;28;48194;-69
2022/11/02 08:25:39;;;;;;;;;1.33;1.33;;;;;15.95;63.65;-19635.97;4997085;27;45426;-69
2022/11/02 08:28:06;;;;;;;;;5.67;1.33;;;;;16.07;63.78;-19639.03;4993402;27;45448;-69
2022/11/02 08:30:32;;;;;;;;;4.00;2.00;;;;;15.97;63.45;-19636.50;4978774;28;45523;-69
2022/11/02 08:33:06;;;;;;;;;1.00;1.00;;;;;16.16;63.13;-19641.47;4993206;27;46997;-69
2022/11/02 08:35:33;;;;;;;;;1.00;1.00;;;;;16.23;62.66;-19643.34;4994701;27;45643;-69
2022/11/02 08:37:59;;;;;;;;;1.67;1.00;;;;;16.24;62.56;-19643.72;4997734;27;45639;-69
2022/11/02 08:40:25;;;;;;;;;2.00;1.00;;;;;16.27;62.45;-19644.41;4999192;27;45452;-69
2022/11/02 08:43:11;;;;;;;;;1.33;0.67;;;;;16.36;62.37;-19646.81;4993112;27;45430;-68
2022/11/02 08:45:38;;;;;;;;;1.00;1.00;;;;;16.43;62.32;-19648.69;4995406;27;45572;-69
2022/11/02 08:48:05;;;;;;;;;1.00;1.00;;;;;16.49;62.53;-19650.16;5004702;27;45530;-69
2022/11/02 08:50:31;;;;;;;;;2.00;1.00;;;;;16.56;62.09;-19652.03;4996585;27;45432;-69
2022/11/02 08:52:56;;;;;;;;;0.50;0.50;;;;;16.60;61.93;-19653.13;4994559;27;45511;-69
2022/11/02 08:55:22;;;;;;;;;1.00;0.00;;;;;16.72;61.88;-19656.19;4977058;28;45345;-69
2022/11/02 08:57:49;;;;;;;;;1.00;1.00;;;;;16.70;61.62;-19655.66;5001998;27;45552;-69
2022/11/02 09:00:16;;;;;;;;;2.33;2.00;;;;;16.73;61.28;-19656.47;4994281;27;45437;-69
2022/11/02 09:02:41;;;;;;;;;1.33;1.33;;;;;17.02;60.71;-19663.97;4996935;27;46136;-69
2022/11/02 09:05:07;;;;;;;;;2.00;1.00;;;;;17.11;60.91;-19666.25;4995629;27;45405;-69
2022/11/02 09:07:33;;;;;;;;;2.33;1.00;;;;;17.19;60.67;-19668.38;4977088;27;45331;-69
2022/11/02 09:09:58;;;;;;;;;2.25;1.00;;;;;17.20;60.40;-19668.78;4981714;28;45618;-69
2022/11/02 09:12:23;;;;;;;;;1.33;1.00;;;;;17.23;59.72;-19669.59;5001371;27;45484;-69
2022/11/02 09:14:49;;;;;;;;;0.00;0.00;;;;;17.25;60.04;-19669.97;4984211;28;45479;-69
2022/11/02 09:17:14;;;;;;;;;1.50;1.00;;;;;17.37;59.89;-19673.06;5006679;27;45405;-69
2022/11/02 09:19:40;;;;;;;;;1.25;0.00;;;;;17.45;59.65;-19675.34;4964557;28;45436;-69
2022/11/02 09:22:05;;;;;;;;;2.00;0.67;;;;;17.50;59.50;-19676.53;5058855;27;46380;-69
2022/11/02 09:24:30;;;;;;;;;2.00;1.00;;;;;17.58;59.23;-19678.53;5004310;27;45384;-69
2022/11/02 09:26:56;;;;;;;;;3.00;1.75;;;;;17.57;59.93;-19678.41;4997963;27;45641;-69
2022/11/02 09:29:21;;;;;;;;;1.50;1.50;;;;;17.69;58.99;-19681.50;5001058;27;45607;-69
2022/11/02 09:31:47;;;;;;;;;3.00;0.00;;;;;17.71;58.93;-19682.16;4995841;27;47172;-69
2022/11/02 09:34:14;;;;;;;;;2.00;1.00;;;;;17.83;58.48;-19685.25;5006925;27;45493;-69
2022/11/02 09:36:39;;;;;;;;;1.25;1.00;;;;;17.88;58.03;-19686.56;4993540;27;45470;-69
2022/11/02 09:39:04;;;;;;;;;1.00;1.00;;;;;17.98;58.22;-19689.13;4981346;27;45553;-69
2022/11/02 09:41:46;;;;;;;;;1.50;1.00;;;;;18.08;58.27;-19691.66;4993735;27;46211;-69
2022/11/02 09:44:22;;;;;;;;;1.25;1.00;;;;;18.17;57.18;-19693.94;4976317;28;45779;-70
2022/11/02 09:46:47;;;;;;;;;1.25;1.25;;;;;18.26;57.30;-19696.34;4995088;27;45425;-69
2022/11/02 09:49:17;;;;;;;;;2.00;1.00;;;;;18.39;56.33;-19699.69;4994043;28;45529;-70
2022/11/02 09:51:48;;;;;;;;;3.00;1.00;;;;;18.30;56.12;-19697.41;5060873;27;46167;-70
2022/11/02 09:54:35;;;;;;;;;1.75;0.75;;;;;18.44;56.59;-19701.16;4995090;27;45432;-70
2022/11/02 09:57:05;;;;;;;;;1.50;0.00;;;;;18.54;56.03;-19703.69;4984017;28;45588;-70
2022/11/02 09:59:32;;;;;;;;;1.50;1.50;;;;;18.65;55.76;-19706.63;4994529;27;45379;-70
2022/11/02 10:02:16;;;;;;;;;4.25;1.00;;;;;18.73;56.04;-19708.63;4977377;28;45554;-70
2022/11/02 10:05:06;;;;;;;;;1.00;1.00;;;;;18.84;56.03;-19711.44;4994802;27;45460;-70
2022/11/02 10:07:57;;;;;;;;;1.50;1.00;;;;;18.91;55.72;-19713.31;5008505;27;45758;-70
2022/11/02 10:10:33;;;;;;;;;1.75;1.75;;;;;18.57;56.35;-19704.50;5009062;27;45562;-70
2022/11/02 10:13:23;;;;;;;;;3.25;1.00;;;;;19.06;56.35;-19717.31;5031684;27;46201;-70
2022/11/02 10:15:54;;;;;;;;;3.00;1.00;;;;;19.12;56.12;-19718.91;4989739;27;47224;-70
2022/11/02 10:18:24;;;;;;;;;4.25;2.25;;;;;19.28;55.64;-19723.06;5008197;27;45408;-70
2022/11/02 10:21:05;;;;;;;;;3.25;1.25;;;;;19.02;55.30;-19716.13;5013260;27;45476;-70
2022/11/02 10:23:36;;;;;;;;;3.50;0.75;;;;;19.22;54.99;-19721.47;4993010;27;46244;-69
2022/11/02 10:26:02;;;;;;;;;2.00;2.00;;;;;19.29;54.94;-19723.31;4996224;27;45385;-70
2022/11/02 10:28:34;;;;;;;;;1.00;1.00;;;;;19.25;54.92;-19722.25;4989711;27;45773;-70
2022/11/02 10:31:01;;;;;;;;;1.50;1.00;;;;;19.07;54.64;-19717.44;5027665;27;45307;-70
2022/11/02 10:33:29;;;;;;;;;1.75;1.75;;;;;19.21;55.37;-19721.19;5037257;27;45523;-70
2022/11/02 10:35:57;;;;;;;;;1.00;1.00;;;;;19.21;55.30;-19721.19;4982189;28;45558;-70
2022/11/02 10:38:48;;;;;;;;;2.25;0.75;;;;;19.23;54.94;-19721.72;4991377;27;45294;-70
2022/11/02 10:41:19;;;;;;;;;2.00;1.00;;;;;19.17;54.91;-19720.13;5004046;27;45378;-70
2022/11/02 10:43:57;;;;;;;;;0.00;0.00;;;;;19.11;54.02;-19718.66;4992896;27;46046;-70
2022/11/02 10:46:28;;;;;;;;;2.00;1.00;;;;;19.16;54.73;-19719.84;5004863;27;45637;-70
2022/11/02 10:49:12;;;;;;;;;2.25;0.50;;;;;19.21;54.36;-19721.19;4984511;28;45439;-70
2022/11/02 10:51:37;;;;;;;;;2.00;0.25;;;;;19.18;54.23;-19720.38;4998041;27;45496;-70
2022/11/02 10:54:12;;;;;;;;;0.75;0.50;;;;;19.06;53.92;-19717.31;4994203;28;46152;-70
2022/11/02 10:56:40;;;;;;;;;0.00;0.00;;;;;19.09;54.22;-19718.13;4993674;27;45487;-70
2022/11/02 10:59:22;;;;;;;;;1.00;1.00;;;;;19.12;53.85;-19718.78;5025615;27;46713;-70
2022/11/02 11:02:01;;;;;;;;;1.00;1.00;;;;;19.07;54.01;-19717.44;5003948;28;45444;-70
2022/11/02 11:04:28;;;;;;;;;0.50;0.50;;;;;18.78;54.58;-19709.97;5037334;27;46003;-70
2022/11/02 11:06:58;;;;;;;;;2.25;1.00;;;;;19.10;54.02;-19718.25;4987746;27;45562;-70
2022/11/02 11:09:55;;;;;;;;;0.50;0.50;;;;;19.08;54.75;-19717.84;4974919;28;45566;-70
2022/11/02 11:12:28;;;;;;;;;2.00;1.00;;;;;19.26;54.35;-19722.41;4997916;27;45246;-70
2022/11/02 11:14:59;;;;;;;;;3.75;1.25;;;;;19.31;54.52;-19723.72;4994609;27;45717;-70
2022/11/02 11:17:34;;;;;;;;;2.25;1.25;;;;;19.31;54.35;-19723.72;5015546;27;45485;-69
2022/11/02 11:20:02;;;;;;;;;3.00;1.00;;;;;19.53;53.59;-19729.47;4969634;28;45648;-70
2022/11/02 11:22:31;;;;;;;;;2.50;2.00;;;;;20.81;51.67;-19762.81;4988398;28;45560;-71
2022/11/02 11:25:12;;;;;;;;;1.00;1.00;;;;;21.14;50.86;-19771.34;4998678;27;46341;-71
2022/11/02 11:32:46;;;;;;;;;1.00;1.00;;;;;21.25;50.18;-19774.25;5053963;28;46663;-81
2022/11/02 11:35:18;;;;;;;;;1.00;1.00;;;;;21.40;50.00;-19778.25;5054669;28;46729;-81
2022/11/02 11:37:59;;;;;;;;;3.25;2.00;;;;;21.42;49.92;-19778.78;5055511;28;45453;-82
2022/11/02 11:40:29;;;;;;;;;1.00;1.00;;;;;21.67;50.20;-19785.31;5040623;28;45604;-82
2022/11/02 11:42:56;;;;;;;;;1.50;0.25;;;;;21.96;48.46;-19792.63;5025694;28;45611;-82
2022/11/02 11:45:31;;;;;;;;;0.50;0.50;;;;;22.00;49.11;-19793.84;5059576;28;47123;-79
2022/11/02 11:48:05;;;;;;;;;3.25;1.00;;;;;22.06;48.82;-19795.28;5059560;28;45385;-80
2022/11/02 11:50:32;;;;;;;;;2.00;2.00;;;;;22.08;48.48;-19795.81;5059461;28;45511;-79
2022/11/02 11:53:21;;;;;;;;;2.50;1.50;;;;;22.25;48.03;-19798.38;5041444;28;45445;-82